Time;durP1;ratioP1;P1;durP2;ratioP2;P2;SDS_P1;SDS_P2;PMS_P1;PMS_P2;Temp;Humidity;BMP_temperature;BMP_pressure;BME280_temperature;BME280_humidity;BME280_pressure;Samples;Min_cycle;Max_cycle;Signal;HPM_P1;HPM_P2
2023/02/25 00:00:43;;;;;;;1999.90;999.90;;;;;;;9.45;100.00;96604.66;5093590;28;20072;-75
2023/02/25 00:03:09;;;;;;;1999.90;999.90;;;;;;;9.49;100.00;96595.50;5093083;28;20035;-74
2023/02/25 00:05:39;;;;;;;1999.90;999.90;;;;;;;9.52;100.00;96594.84;5093178;28;20390;-75
2023/02/25 00:08:05;;;;;;;1999.90;999.90;;;;;;;9.51;100.00;96590.53;5092954;28;20104;-75
2023/02/25 00:10:30;;;;;;;1999.90;999.90;;;;;;;9.47;100.00;96581.38;5093094;28;20028;-75
2023/02/25 00:12:55;;;;;;;1999.90;999.90;;;;;;;9.42;100.00;96578.81;5093345;28;20039;-77
2023/02/25 00:15:21;;;;;;;1999.90;999.90;;;;;;;9.49;100.00;96572.88;5093074;28;20118;-74
2023/02/25 00:17:48;;;;;;;1999.90;999.90;;;;;;;9.47;100.00;96578.66;5091606;28;20031;-74
2023/02/25 00:20:21;;;;;;;1999.90;999.90;;;;;;;9.37;100.00;96559.88;5093321;28;20050;-75
2023/02/25 00:22:47;;;;;;;1999.90;999.90;;;;;;;9.39;100.00;96571.28;5093751;28;20103;-75
2023/02/25 00:25:15;;;;;;;1999.90;999.90;;;;;;;9.37;100.00;96570.78;5095376;28;20020;-74
2023/02/25 00:27:42;;;;;;;1999.90;999.90;;;;;;;9.37;100.00;96554.41;5099662;28;20170;-79
2023/02/25 00:30:09;;;;;;;1999.90;999.90;;;;;;;9.30;100.00;96547.84;5099844;28;20024;-79
2023/02/25 00:32:35;;;;;;;1999.90;999.90;;;;;;;9.31;100.00;96543.97;5093054;28;20038;-74
2023/02/25 00:35:01;;;;;;;1999.90;999.90;;;;;;;9.34;100.00;96548.78;5092544;28;20063;-75
2023/02/25 00:37:27;;;;;;;1999.90;999.90;;;;;;;9.33;100.00;96552.66;5092269;28;20043;-75
2023/02/25 00:39:52;;;;;;;1999.90;999.90;;;;;;;9.29;100.00;96529.88;5092560;28;20400;-76
2023/02/25 00:42:18;;;;;;;1999.90;999.90;;;;;;;9.31;100.00;96536.59;5092312;28;20078;-75
2023/02/25 00:44:48;;;;;;;1999.90;999.90;;;;;;;9.38;100.00;96527.94;5092414;28;20396;-74
2023/02/25 00:47:15;;;;;;;1999.90;999.90;;;;;;;9.35;100.00;96534.84;5092196;28;20036;-76
2023/02/25 00:49:41;;;;;;;1999.90;999.90;;;;;;;9.19;100.00;96517.34;5092307;28;20024;-76
2023/02/25 00:52:06;;;;;;;1999.90;999.90;;;;;;;9.33;100.00;96526.19;5091960;28;20028;-74
2023/02/25 00:54:33;;;;;;;1999.90;999.90;;;;;;;9.36;100.00;96516.53;5092433;28;20456;-75
2023/02/25 00:56:58;;;;;;;1999.90;999.90;;;;;;;9.27;100.00;96499.38;5091970;28;20040;-74
2023/02/25 00:59:23;;;;;;;1999.90;999.90;;;;;;;9.37;100.00;96502.56;5090726;28;20038;-75
2023/02/25 01:01:49;;;;;;;1999.90;999.90;;;;;;;9.35;100.00;96506.75;5092058;28;20036;-76
2023/02/25 01:04:14;;;;;;;1999.90;999.90;;;;;;;9.40;100.00;96493.72;5092100;28;20078;-76
2023/02/25 01:06:40;;;;;;;1999.90;999.90;;;;;;;9.24;100.00;96478.97;5091765;28;20032;-76
2023/02/25 01:09:12;;;;;;;1999.90;999.90;;;;;;;9.40;100.00;96485.53;5091765;28;20050;-76
2023/02/25 01:11:40;;;;;;;1999.90;999.90;;;;;;;9.44;100.00;96489.25;5090591;28;20128;-74
2023/02/25 01:14:09;;;;;;;1999.90;999.90;;;;;;;9.41;100.00;96478.97;5091052;28;20105;-76
2023/02/25 01:16:35;;;;;;;1999.90;999.90;;;;;;;9.40;100.00;96477.34;5092085;28;20028;-75
2023/02/25 01:19:06;;;;;;;1999.90;999.90;;;;;;;9.48;100.00;96473.81;5091596;28;20055;-74
2023/02/25 01:21:36;;;;;;;1999.90;999.90;;;;;;;9.47;100.00;96468.69;5091833;28;20480;-76
2023/02/25 01:24:05;;;;;;;1999.90;999.90;;;;;;;9.43;100.00;96443.19;5092310;28;20500;-74
2023/02/25 01:26:33;;;;;;;1999.90;999.90;;;;;;;9.45;100.00;96463.56;5093237;28;20024;-74
2023/02/25 01:28:59;;;;;;;1999.90;999.90;;;;;;;9.48;100.00;96457.44;5094037;28;20024;-74
2023/02/25 01:31:27;;;;;;;1999.90;999.90;;;;;;;9.53;100.00;96454.53;5093661;28;20028;-76
2023/02/25 01:33:55;;;;;;;1999.90;999.90;;;;;;;9.54;100.00;96447.97;5092006;28;20027;-77
2023/02/25 01:36:21;;;;;;;1999.90;999.90;;;;;;;9.53;100.00;96437.34;5091944;28;20472;-77
2023/02/25 01:38:46;;;;;;;1999.90;999.90;;;;;;;9.55;100.00;96433.16;5090820;28;20035;-74
2023/02/25 01:41:11;;;;;;;1999.90;999.90;;;;;;;9.55;100.00;96421.47;5091280;28;20031;-74
2023/02/25 01:43:37;;;;;;;1999.90;999.90;;;;;;;9.53;100.00;96420.97;5091491;28;20086;-75
2023/02/25 01:46:02;;;;;;;1999.90;999.90;;;;;;;9.44;100.00;96407.38;5092043;28;20480;-76
2023/02/25 01:48:31;;;;;;;1999.90;999.90;;;;;;;9.54;100.00;96407.03;5091899;28;20036;-74
2023/02/25 01:51:03;;;;;;;1999.90;999.90;;;;;;;9.54;100.00;96389.84;5091612;28;20103;-74
2023/02/25 01:53:33;;;;;;;1999.90;999.90;;;;;;;9.53;100.00;96388.22;5091013;28;20484;-75
2023/02/25 01:56:01;;;;;;;1999.90;999.90;;;;;;;9.49;100.00;96376.38;5091616;28;20499;-75
2023/02/25 01:58:27;;;;;;;1999.90;999.90;;;;;;;9.46;100.00;96377.81;5090952;28;20073;-76
2023/02/25 02:00:54;;;;;;;1999.90;999.90;;;;;;;9.37;100.00;96374.31;5089500;28;20477;-75
2023/02/25 02:03:30;;;;;;;1999.90;999.90;;;;;;;9.41;100.00;96394.38;5091012;28;20115;-75
2023/02/25 02:06:02;;;;;;;1999.90;999.90;;;;;;;9.47;100.00;96384.88;5089573;28;20396;-74
2023/02/25 02:08:31;;;;;;;1999.90;999.90;;;;;;;9.39;100.00;96350.25;5090728;28;20052;-74
2023/02/25 02:10:56;;;;;;;1999.90;999.90;;;;;;;9.54;100.00;96368.81;5090767;28;20370;-76
2023/02/25 02:13:23;;;;;;;1999.90;999.90;;;;;;;9.57;100.00;96362.69;5090789;28;20113;-75
2023/02/25 02:16:00;;;;;;;1999.90;999.90;;;;;;;9.60;100.00;96366.69;5090991;28;20040;-74
2023/02/25 02:18:32;;;;;;;1999.90;999.90;;;;;;;9.57;100.00;96362.69;5090781;28;20377;-74
2023/02/25 02:21:29;;;;;;;1999.90;999.90;;;;;;;9.64;100.00;96363.00;5090677;28;20039;-77
2023/02/25 02:24:03;;;;;;;1999.90;999.90;;;;;;;9.63;100.00;96361.38;5090761;28;20028;-76
2023/02/25 02:26:44;;;;;;;1999.90;999.90;;;;;;;9.66;100.00;96365.38;5090977;28;20035;-74
2023/02/25 02:29:28;;;;;;;1999.90;999.90;;;;;;;9.69;100.00;96362.00;5089359;28;20724;-76
2023/02/25 02:32:06;;;;;;;1999.90;999.90;;;;;;;9.69;100.00;96357.34;5090996;28;20028;-75
2023/02/25 02:34:40;;;;;;;1999.90;999.90;;;;;;;9.74;100.00;96361.00;5092622;28;20097;-76
2023/02/25 02:37:37;;;;;;;1999.90;999.90;;;;;;;9.76;100.00;96361.47;5094663;28;20021;-75
2023/02/25 02:40:14;;;;;;;1999.90;999.90;;;;;;;9.80;100.00;96348.78;5092167;28;20059;-75
2023/02/25 02:42:45;;;;;;;1999.90;999.90;;;;;;;9.75;100.00;96344.28;5090830;28;20030;-76
2023/02/25 02:45:22;;;;;;;1999.90;999.90;;;;;;;9.71;100.00;96335.16;5090418;28;20034;-76
2023/02/25 02:48:01;;;;;;;1999.90;999.90;;;;;;;9.71;100.00;96328.91;5090627;28;20030;-76
2023/02/25 02:50:41;;;;;;;1999.90;999.90;;;;;;;9.63;100.00;96328.63;5094684;28;20036;-76
2023/02/25 02:53:13;;;;;;;1999.90;999.90;;;;;;;9.55;100.00;96299.41;5094867;28;20468;-75
2023/02/25 02:55:42;;;;;;;1999.90;999.90;;;;;;;9.58;100.00;96323.38;5095737;28;20040;-75
2023/02/25 02:58:30;;;;;;;1999.90;999.90;;;;;;;9.57;100.00;96319.03;5096180;28;20024;-77
2023/02/25 03:01:02;;;;;;;1999.90;999.90;;;;;;;9.62;100.00;96316.09;5096487;28;20024;-75
2023/02/25 03:03:36;;;;;;;1999.90;999.90;;;;;;;9.55;100.00;96315.03;5096682;28;20034;-77
2023/02/25 03:06:11;;;;;;;1999.90;999.90;;;;;;;9.61;100.00;96297.34;5094843;28;20023;-75
2023/02/25 03:08:48;;;;;;;1999.90;999.90;;;;;;;9.62;100.00;96298.91;5094138;28;20062;-74
2023/02/25 03:11:14;;;;;;;1999.90;999.90;;;;;;;9.73;100.00;96318.44;5094207;28;20035;-75
2023/02/25 03:13:40;;;;;;;1999.90;999.90;;;;;;;9.63;100.00;96298.59;5094174;28;20024;-74
2023/02/25 03:16:11;;;;;;;1999.90;999.90;;;;;;;9.71;100.00;96304.34;5093125;28;20145;-76
2023/02/25 03:18:52;;;;;;;1999.90;999.90;;;;;;;9.77;100.00;96316.66;5081595;28;20372;-76
2023/02/25 03:21:22;;;;;;;1999.90;999.90;;;;;;;9.74;100.00;96306.41;5093716;28;20032;-77
2023/02/25 03:23:47;;;;;;;1999.90;999.90;;;;;;;9.75;100.00;96308.78;5081760;28;20404;-76
2023/02/25 03:26:31;;;;;;;1999.90;999.90;;;;;;;9.76;100.00;96310.41;5092063;28;20025;-75
2023/02/25 03:28:57;;;;;;;1999.90;999.90;;;;;;;9.67;100.00;96296.81;5091973;28;20430;-75
2023/02/25 03:31:42;;;;;;;1999.90;999.90;;;;;;;9.63;100.00;96293.13;5087381;28;20480;-74
2023/02/25 03:34:07;;;;;;;1999.90;999.90;;;;;;;9.71;100.00;96301.63;5073907;28;20040;-76
2023/02/25 03:36:40;;;;;;;1999.90;999.90;;;;;;;9.71;100.00;96287.97;5077175;28;20028;-74
2023/02/25 03:39:12;;;;;;;1999.90;999.90;;;;;;;9.66;100.00;96287.00;5093176;28;20449;-75
2023/02/25 03:41:41;;;;;;;1999.90;999.90;;;;;;;9.66;100.00;96280.75;5092795;28;20503;-75
2023/02/25 03:44:15;;;;;;;1999.90;999.90;;;;;;;9.69;100.00;96272.69;5092952;28;20032;-78
2023/02/25 03:46:44;;;;;;;1999.90;999.90;;;;;;;9.68;100.00;96264.81;5092996;28;20069;-76
2023/02/25 03:49:14;;;;;;;1999.90;999.90;;;;;;;9.69;100.00;96261.78;5083475;28;20841;-75
2023/02/25 03:51:43;;;;;;;1999.90;999.90;;;;;;;9.64;100.00;96258.44;5072797;28;20028;-75
2023/02/25 03:54:08;;;;;;;1999.90;999.90;;;;;;;9.66;100.00;96250.72;5072863;28;20067;-75
2023/02/25 03:56:47;;;;;;;1999.90;999.90;;;;;;;9.64;100.00;96250.25;5083059;28;20028;-76
2023/02/25 03:59:14;;;;;;;1999.90;999.90;;;;;;;9.64;100.00;96253.78;5092746;28;20028;-75
2023/02/25 04:01:43;;;;;;;1999.90;999.90;;;;;;;9.70;100.00;96268.03;5092548;28;20028;-75
2023/02/25 04:04:09;;;;;;;1999.90;999.90;;;;;;;9.63;100.00;96260.38;5094474;28;20020;-74
2023/02/25 04:06:34;;;;;;;1999.90;999.90;;;;;;;9.66;100.00;96262.44;5094333;28;20028;-74
2023/02/25 04:09:00;;;;;;;1999.90;999.90;;;;;;;9.67;100.00;96274.16;5093028;28;20044;-75
2023/02/25 04:11:25;;;;;;;1999.90;999.90;;;;;;;9.71;100.00;96271.59;5093057;28;20111;-75
2023/02/25 04:13:50;;;;;;;1999.90;999.90;;;;;;;9.66;100.00;96276.09;5092140;28;20024;-75
2023/02/25 04:16:16;;;;;;;1999.90;999.90;;;;;;;9.64;100.00;96281.09;5092449;28;20032;-75
2023/02/25 04:18:41;;;;;;;1999.90;999.90;;;;;;;9.62;100.00;96280.59;5093022;28;20067;-76
2023/02/25 04:21:07;;;;;;;1999.90;999.90;;;;;;;9.66;100.00;96273.38;5087257;28;20066;-75
2023/02/25 04:23:34;;;;;;;1999.90;999.90;;;;;;;9.67;100.00;96271.44;5074830;28;20052;-74
2023/02/25 04:25:59;;;;;;;1999.90;999.90;;;;;;;9.67;100.00;96266.78;5078186;28;20111;-74
2023/02/25 04:28:25;;;;;;;1999.90;999.90;;;;;;;9.72;100.00;96282.16;5093330;28;20042;-77
2023/02/25 04:30:50;;;;;;;1999.90;999.90;;;;;;;9.74;100.00;96279.09;5093518;28;20361;-78
2023/02/25 04:33:16;;;;;;;1999.90;999.90;;;;;;;9.76;100.00;96266.72;5093204;28;20103;-76
2023/02/25 04:35:41;;;;;;;1999.90;999.90;;;;;;;9.79;100.00;96268.78;5090611;28;20063;-77
2023/02/25 04:38:06;;;;;;;1999.90;999.90;;;;;;;9.69;100.00;96269.16;5087515;28;20028;-75
2023/02/25 04:40:32;;;;;;;1999.90;999.90;;;;;;;9.73;100.00;96267.38;5072118;28;20426;-75
2023/02/25 04:42:57;;;;;;;1999.90;999.90;;;;;;;9.80;100.00;96261.41;5086361;28;20031;-75
2023/02/25 04:45:24;;;;;;;1999.90;999.90;;;;;;;9.77;100.00;96262.06;5093764;28;20020;-76
2023/02/25 04:47:56;;;;;;;1999.90;999.90;;;;;;;9.81;100.00;96266.50;5094645;28;20071;-76
2023/02/25 04:50:22;;;;;;;1999.90;999.90;;;;;;;9.77;100.00;96265.59;5092579;28;20020;-75
2023/02/25 04:52:48;;;;;;;1999.90;999.90;;;;;;;9.77;100.00;96270.25;5092024;28;20028;-76
2023/02/25 04:55:13;;;;;;;1999.90;999.90;;;;;;;9.79;100.00;96270.72;5078543;28;20374;-76
2023/02/25 04:57:41;;;;;;;1999.90;999.90;;;;;;;9.76;100.00;96247.59;5091718;28;20031;-75
2023/02/25 05:00:15;;;;;;;1999.90;999.90;;;;;;;9.65;100.00;96258.09;5084531;28;20039;-76
2023/02/25 05:02:40;;;;;;;1999.90;999.90;;;;;;;9.66;100.00;96251.53;5070172;28;20032;-76
2023/02/25 05:05:06;;;;;;;1999.90;999.90;;;;;;;9.57;100.00;96250.78;5071435;28;20398;-75
2023/02/25 05:07:31;;;;;;;1999.90;999.90;;;;;;;9.48;100.00;96241.84;5070704;28;20476;-76
2023/02/25 05:09:57;;;;;;;1999.90;999.90;;;;;;;9.44;100.00;96246.38;5071457;28;20404;-76
2023/02/25 05:12:22;;;;;;;1999.90;999.90;;;;;;;9.42;100.00;96245.91;5079687;28;20112;-76
2023/02/25 05:14:47;;;;;;;1999.90;999.90;;;;;;;9.36;100.00;96238.22;5091745;28;20177;-77
2023/02/25 05:17:14;;;;;;;1999.90;999.90;;;;;;;9.38;100.00;96244.16;5091503;28;20486;-75
2023/02/25 05:19:41;;;;;;;1999.90;999.90;;;;;;;9.29;100.00;96257.03;5091572;28;20105;-75
2023/02/25 05:22:08;;;;;;;1999.90;999.90;;;;;;;9.29;100.00;96246.13;5092821;28;20757;-75
2023/02/25 05:24:33;;;;;;;1999.90;999.90;;;;;;;9.26;100.00;96252.25;5093021;28;20038;-74
2023/02/25 05:27:03;;;;;;;1999.90;999.90;;;;;;;9.23;100.00;96259.16;5091805;28;20024;-75
2023/02/25 05:29:29;;;;;;;1999.90;999.90;;;;;;;9.17;100.00;96249.56;5091352;28;20031;-74
2023/02/25 05:31:54;;;;;;;1999.90;999.90;;;;;;;9.22;100.00;96254.03;5091157;28;20032;-75
2023/02/25 05:34:21;;;;;;;1999.90;999.90;;;;;;;9.21;100.00;96253.22;5091200;28;20434;-75
2023/02/25 05:36:47;;;;;;;1999.90;999.90;;;;;;;9.24;100.00;96252.56;5091578;28;20457;-77
2023/02/25 05:39:12;;;;;;;1999.90;999.90;;;;;;;9.27;100.00;96240.22;5092318;28;20063;-74
2023/02/25 05:41:38;;;;;;;1999.90;999.90;;;;;;;9.26;100.00;96236.69;5092029;28;20032;-75
2023/02/25 05:44:04;;;;;;;1999.90;999.90;;;;;;;9.27;100.00;96254.63;5092573;28;20461;-73
2023/02/25 05:46:29;;;;;;;1999.90;999.90;;;;;;;9.33;100.00;96256.06;5090618;28;20108;-73
2023/02/25 05:48:55;;;;;;;1999.90;999.90;;;;;;;9.39;100.00;96256.69;5090559;28;20484;-72
2023/02/25 05:51:22;;;;;;;1999.90;999.90;;;;;;;9.40;100.00;96258.25;5090969;28;20078;-73
2023/02/25 05:53:48;;;;;;;1999.90;999.90;;;;;;;9.38;100.00;96264.06;5090936;28;20055;-72
2023/02/25 05:56:16;;;;;;;1999.90;999.90;;;;;;;9.44;100.00;96262.72;5091003;28;20051;-72
2023/02/25 05:58:42;;;;;;;1999.90;999.90;;;;;;;9.48;100.00;96266.41;5078838;28;20032;-72
2023/02/25 06:01:13;;;;;;;1999.90;999.90;;;;;;;9.48;100.00;96263.69;5090561;28;20038;-72
2023/02/25 06:03:40;;;;;;;1999.90;999.90;;;;;;;9.44;100.00;96281.84;5077360;28;20442;-72
2023/02/25 06:06:06;;;;;;;1999.90;999.90;;;;;;;9.44;100.00;96287.28;5070299;28;20047;-73
2023/02/25 06:08:33;;;;;;;1999.90;999.90;;;;;;;9.43;100.00;96287.63;5070285;28;20041;-72
2023/02/25 06:11:03;;;;;;;1999.90;999.90;;;;;;;9.42;100.00;96299.69;5070300;28;20036;-72
2023/02/25 06:13:28;;;;;;;1999.90;999.90;;;;;;;9.46;100.00;96309.59;5070408;28;20021;-73
2023/02/25 06:15:53;;;;;;;1999.90;999.90;;;;;;;9.38;100.00;96304.19;5083828;28;20073;-74
2023/02/25 06:18:19;;;;;;;1999.90;999.90;;;;;;;9.44;100.00;96311.84;5090094;28;20043;-73
2023/02/25 06:20:46;;;;;;;1999.90;999.90;;;;;;;9.49;100.00;96294.50;5090429;28;20376;-73
2023/02/25 06:23:11;;;;;;;1999.90;999.90;;;;;;;9.48;100.00;96301.09;5088320;28;20480;-73
2023/02/25 06:25:38;;;;;;;1999.90;999.90;;;;;;;9.47;100.00;96297.56;5090511;28;20051;-73
2023/02/25 06:28:03;;;;;;;1999.90;999.90;;;;;;;9.56;100.00;96311.94;5090052;28;20036;-73
2023/02/25 06:30:29;;;;;;;1999.90;999.90;;;;;;;9.61;100.00;96309.06;5088832;28;20048;-73
2023/02/25 06:32:55;;;;;;;1999.90;999.90;;;;;;;9.66;100.00;96322.50;5090186;28;20040;-73
2023/02/25 06:35:22;;;;;;;1999.90;999.90;;;;;;;9.70;100.00;96311.72;5090159;28;20542;-73
2023/02/25 06:37:49;;;;;;;1999.90;999.90;;;;;;;9.72;100.00;96314.91;5090038;28;20028;-73
2023/02/25 06:40:15;;;;;;;1999.90;999.90;;;;;;;9.79;100.00;96322.59;5085718;28;20024;-75
2023/02/25 06:42:40;;;;;;;1999.90;999.90;;;;;;;9.71;100.00;96339.84;5086156;28;20031;-73
2023/02/25 06:45:06;;;;;;;1999.90;999.90;;;;;;;9.83;100.00;96326.28;5091344;28;20477;-74
2023/02/25 06:47:31;;;;;;;1999.90;999.90;;;;;;;9.84;100.00;96325.91;5070003;28;20086;-74
2023/02/25 06:49:57;;;;;;;1999.90;999.90;;;;;;;9.91;100.00;96326.22;5069777;28;20035;-71
2023/02/25 06:52:23;;;;;;;1999.90;999.90;;;;;;;9.92;100.00;96325.09;5069946;28;20017;-73
2023/02/25 06:54:49;;;;;;;1999.90;999.90;;;;;;;9.94;100.00;96331.00;5070962;28;20036;-79
2023/02/25 06:57:15;;;;;;;1999.90;999.90;;;;;;;9.93;100.00;96332.13;5074409;28;20040;-75
2023/02/25 06:59:40;;;;;;;1999.90;999.90;;;;;;;9.96;100.00;96327.97;5091638;28;20024;-73
2023/02/25 07:02:07;;;;;;;1999.90;999.90;;;;;;;10.02;100.00;96321.16;5088714;28;20117;-73
2023/02/25 07:04:32;;;;;;;1999.90;999.90;;;;;;;10.11;100.00;96324.63;5088477;28;20412;-72
2023/02/25 07:06:58;;;;;;;1999.90;999.90;;;;;;;10.16;100.00;96329.94;5089055;28;20029;-73
2023/02/25 07:09:23;;;;;;;1999.90;999.90;;;;;;;10.25;100.00;96327.13;5085468;28;20043;-73
2023/02/25 07:11:48;;;;;;;1999.90;999.90;;;;;;;10.29;100.00;96317.13;5089495;28;20031;-74
2023/02/25 07:14:15;;;;;;;1999.90;999.90;;;;;;;10.43;100.00;96331.34;5085200;28;20032;-74
2023/02/25 07:16:41;;;;;;;1999.90;999.90;;;;;;;10.48;100.00;96326.47;5087847;28;20534;-73
2023/02/25 07:19:06;;;;;;;1999.90;999.90;;;;;;;10.65;100.00;96325.53;5107517;28;20024;-73
2023/02/25 07:21:32;;;;;;;1999.90;999.90;;;;;;;10.95;100.00;96331.66;5108509;28;20023;-73
2023/02/25 07:23:58;;;;;;;1999.90;999.90;;;;;;;11.10;100.00;96334.53;5107909;28;20581;-73
2023/02/25 07:26:27;;;;;;;1999.90;999.90;;;;;;;11.20;100.00;96331.38;5103244;28;20131;-74
2023/02/25 07:28:56;;;;;;;1999.90;999.90;;;;;;;11.27;100.00;96344.50;5089542;28;20090;-74
2023/02/25 07:31:21;;;;;;;1999.90;999.90;;;;;;;11.39;100.00;96341.78;5089103;28;20031;-73
2023/02/25 07:33:47;;;;;;;1999.90;999.90;;;;;;;11.41;100.00;96342.25;5085451;28;20028;-73
2023/02/25 07:36:14;;;;;;;1999.90;999.90;;;;;;;11.49;100.00;96346.03;5090321;28;20027;-74
2023/02/25 07:38:39;;;;;;;1999.90;999.90;;;;;;;11.31;100.00;96352.84;5091193;28;20396;-75
2023/02/25 07:41:14;;;;;;;1999.90;999.90;;;;;;;11.29;100.00;96334.00;5092980;28;20032;-74
2023/02/25 07:43:40;;;;;;;1999.90;999.90;;;;;;;11.25;100.00;96338.56;5093232;28;20128;-74
2023/02/25 07:46:07;;;;;;;1999.90;999.90;;;;;;;11.29;100.00;96334.81;5093095;28;20031;-74
2023/02/25 07:48:32;;;;;;;1999.90;999.90;;;;;;;11.32;100.00;96333.34;5092950;28;20388;-74
2023/02/25 07:51:09;;;;;;;1999.90;999.90;;;;;;;11.65;100.00;96342.25;5092604;28;20016;-73
2023/02/25 07:53:35;;;;;;;1999.90;999.90;;;;;;;11.73;100.00;96332.38;5092119;28;20028;-73
2023/02/25 07:56:00;;;;;;;1999.90;999.90;;;;;;;11.65;100.00;96338.75;5093125;28;20078;-73
2023/02/25 07:58:27;;;;;;;1999.90;999.90;;;;;;;11.65;100.00;96341.47;5092822;28;20020;-73
2023/02/25 08:00:53;;;;;;;1999.90;999.90;;;;;;;11.69;100.00;96332.22;5094226;28;20020;-74
2023/02/25 08:03:18;;;;;;;1999.90;999.90;;;;;;;11.77;100.00;96333.28;5092457;28;20031;-73
2023/02/25 08:05:44;;;;;;;1999.90;999.90;;;;;;;11.84;100.00;96329.97;5092608;28;20052;-73
2023/02/25 08:08:09;;;;;;;1999.90;999.90;;;;;;;11.73;100.00;96319.47;5092195;28;20036;-74
2023/02/25 08:10:36;;;;;;;1999.90;999.90;;;;;;;11.80;100.00;96327.13;5092310;28;20064;-73
2023/02/25 08:13:01;;;;;;;1999.90;999.90;;;;;;;11.80;100.00;96327.13;5092211;28;20024;-73
2023/02/25 08:15:27;;;;;;;1999.90;999.90;;;;;;;11.69;100.00;96326.75;5092166;28;20077;-73
2023/02/25 08:17:54;;;;;;;1999.90;999.90;;;;;;;11.89;100.00;96319.59;5091984;28;20118;-74
2023/02/25 08:20:20;;;;;;;1999.90;999.90;;;;;;;12.03;100.00;96319.25;5092408;28;20559;-74
2023/02/25 08:22:45;;;;;;;1999.90;999.90;;;;;;;11.97;100.00;96321.38;5092387;28;20481;-73
2023/02/25 08:25:11;;;;;;;1999.90;999.90;;;;;;;11.98;100.00;96335.91;5091428;28;20034;-74
2023/02/25 08:27:36;;;;;;;1999.90;999.90;;;;;;;11.72;100.00;96334.31;5092781;28;20039;-75
2023/02/25 08:30:03;;;;;;;1999.90;999.90;;;;;;;11.47;100.00;96329.94;5092060;28;20115;-73
2023/02/25 08:32:28;;;;;;;1999.90;999.90;;;;;;;11.41;100.00;96314.88;5092604;28;20062;-74
2023/02/25 08:34:55;;;;;;;1999.90;999.90;;;;;;;11.51;100.00;96317.16;5092280;28;20028;-75
2023/02/25 08:37:21;;;;;;;1999.90;999.90;;;;;;;11.55;100.00;96320.81;5092156;28;20055;-75
2023/02/25 08:39:46;;;;;;;1999.90;999.90;;;;;;;11.32;100.00;96322.38;5090671;28;20111;-76
2023/02/25 08:42:14;;;;;;;1999.90;999.90;;;;;;;11.12;100.00;96324.03;5090807;28;20111;-76
2023/02/25 08:44:39;;;;;;;1999.90;999.90;;;;;;;11.28;100.00;96327.72;5093049;28;20032;-75
2023/02/25 08:47:05;;;;;;;1999.90;999.90;;;;;;;11.29;100.00;96337.56;5092705;28;20404;-75
2023/02/25 08:49:30;;;;;;;1999.90;999.90;;;;;;;11.21;100.00;96332.19;5096437;28;20021;-76
2023/02/25 08:51:56;;;;;;;1999.90;999.90;;;;;;;11.07;100.00;96328.94;5092222;28;20110;-76
2023/02/25 08:54:21;;;;;;;1999.90;999.90;;;;;;;11.12;100.00;96335.00;5092893;28;20119;-75
2023/02/25 08:56:49;;;;;;;1999.90;999.90;;;;;;;11.04;100.00;96311.28;5092524;28;20016;-75
2023/02/25 08:59:15;;;;;;;1999.90;999.90;;;;;;;11.22;100.00;96320.88;5095363;28;20046;-76
2023/02/25 09:01:43;;;;;;;1999.90;999.90;;;;;;;11.10;100.00;96320.06;5095410;28;20020;-78
2023/02/25 09:04:21;;;;;;;1999.90;999.90;;;;;;;11.24;100.00;96317.81;5094784;28;20464;-76
2023/02/25 09:06:47;;;;;;;1999.90;999.90;;;;;;;11.28;100.00;96316.78;5089061;28;20503;-76
2023/02/25 09:09:17;;;;;;;1999.90;999.90;;;;;;;11.39;100.00;96324.56;5090042;28;20032;-75
2023/02/25 09:11:44;;;;;;;1999.90;999.90;;;;;;;11.50;100.00;96326.50;5090150;28;20016;-73
2023/02/25 09:14:10;;;;;;;1999.90;999.90;;;;;;;11.62;100.00;96323.75;5092628;28;20028;-75
2023/02/25 09:16:36;;;;;;;1999.90;999.90;;;;;;;11.67;100.00;96322.75;5093261;28;20063;-75
2023/02/25 09:19:02;;;;;;;1999.90;999.90;;;;;;;11.78;100.00;96313.75;5089012;28;20058;-74
2023/02/25 09:21:27;;;;;;;1999.90;999.90;;;;;;;11.79;100.00;96304.41;5091384;28;20027;-75
2023/02/25 09:23:53;;;;;;;1999.90;999.90;;;;;;;11.62;100.00;96320.25;5091254;28;20032;-76
2023/02/25 09:26:21;;;;;;;1999.90;999.90;;;;;;;11.52;100.00;96321.50;5090846;28;20078;-75
2023/02/25 09:28:46;;;;;;;1999.90;999.90;;;;;;;11.69;100.00;96320.47;5090023;28;20027;-76
2023/02/25 09:31:13;;;;;;;1999.90;999.90;;;;;;;11.69;100.00;96324.00;5091210;28;20020;-76
2023/02/25 09:33:38;;;;;;;1999.90;999.90;;;;;;;11.54;100.00;96308.25;5091245;28;20020;-75
2023/02/25 09:36:10;;;;;;;1999.90;999.90;;;;;;;11.59;100.00;96313.50;5091023;28;20423;-77
2023/02/25 09:38:36;;;;;;;1999.90;999.90;;;;;;;11.54;100.00;96308.25;5090907;28;20053;-74
2023/02/25 09:41:02;;;;;;;1999.90;999.90;;;;;;;11.34;100.00;96302.91;5088118;28;20024;-73
2023/02/25 09:43:36;;;;;;;1999.90;999.90;;;;;;;11.50;100.00;96321.03;5090693;28;20024;-74
2023/02/25 09:46:07;;;;;;;1999.90;999.90;;;;;;;11.59;100.00;96310.75;5088020;28;20495;-75
2023/02/25 09:49:01;;;;;;;1999.90;999.90;;;;;;;11.67;100.00;96317.28;5089419;28;20050;-75
2023/02/25 09:51:33;;;;;;;1999.90;999.90;;;;;;;11.67;100.00;96309.88;5088590;28;20072;-74
2023/02/25 09:54:17;;;;;;;1999.90;999.90;;;;;;;11.75;100.00;96325.41;5090829;28;20041;-76
2023/02/25 09:56:43;;;;;;;1999.90;999.90;;;;;;;11.68;100.00;96325.13;5090914;28;20031;-75
2023/02/25 09:59:20;;;;;;;1999.90;999.90;;;;;;;11.84;100.00;96329.97;5090566;28;20349;-76
2023/02/25 10:01:52;;;;;;;1999.90;999.90;;;;;;;11.85;100.00;96328.81;5087689;28;20032;-75
2023/02/25 10:04:42;;;;;;;1999.90;999.90;;;;;;;11.72;100.00;96323.34;5090322;28;20024;-75
2023/02/25 10:07:19;;;;;;;1999.90;999.90;;;;;;;11.76;100.00;96321.53;5087713;28;20044;-76
2023/02/25 10:10:00;;;;;;;1999.90;999.90;;;;;;;11.79;100.00;96320.84;5090555;28;20059;-75
2023/02/25 10:12:37;;;;;;;1999.90;999.90;;;;;;;11.82;100.00;96319.34;5087389;28;20024;-75
2023/02/25 10:15:13;;;;;;;1999.90;999.90;;;;;;;11.58;100.00;96311.13;5088467;28;20424;-75
2023/02/25 10:17:57;;;;;;;;;;;;;;;11.77;100.00;96309.44;5091261;28;20032;-74
2023/02/25 10:20:53;;;;;;;1999.90;999.90;;;;;;;11.82;100.00;96306.47;5090563;28;19918;-73
2023/02/25 10:23:37;;;;;;;1999.90;999.90;;;;;;;11.90;100.00;96310.22;5089023;28;20032;-74
2023/02/25 10:26:32;;;;;;;1999.90;999.90;;;;;;;11.88;100.00;96301.53;5085818;28;20032;-74
2023/02/25 10:29:03;;;;;;;1999.90;999.90;;;;;;;11.99;100.00;96301.88;5086921;28;20105;-77
2023/02/25 10:31:29;;;;;;;1999.90;999.90;;;;;;;12.04;100.00;96299.69;5089917;28;20078;-76
2023/02/25 10:33:57;;;;;;;1999.90;999.90;;;;;;;12.07;100.00;96301.75;5089504;28;20031;-77
2023/02/25 10:36:42;;;;;;;1999.90;999.90;;;;;;;12.02;100.00;96295.72;5085495;28;20399;-74
2023/02/25 10:39:09;;;;;;;1999.90;999.90;;;;;;;11.98;100.00;96300.28;5087985;28;20024;-75
2023/02/25 10:41:35;;;;;;;1999.90;999.90;;;;;;;11.95;100.00;96281.78;5087095;28;20388;-72
2023/02/25 10:44:00;;;;;;;1999.90;999.90;;;;;;;11.92;100.00;96286.03;5090180;28;20115;-74
2023/02/25 10:46:35;;;;;;;1999.90;999.90;;;;;;;11.95;100.00;96284.53;5090459;28;20040;-74
2023/02/25 10:49:24;;;;;;;1999.90;999.90;;;;;;;12.00;100.00;96287.00;5090902;28;20034;-75
2023/02/25 10:52:02;;;;;;;1999.90;999.90;;;;;;;12.09;100.00;96293.19;5087378;28;20021;-76
2023/02/25 10:54:43;;;;;;;1999.90;999.90;;;;;;;11.98;100.00;96272.88;5090215;28;20023;-74
2023/02/25 10:57:14;;;;;;;1999.90;999.90;;;;;;;11.80;100.00;96275.88;5090475;28;20126;-77
2023/02/25 10:59:42;;;;;;;1999.90;999.90;;;;;;;11.97;100.00;96276.75;5084510;28;20027;-75